Time;durP1;ratioP1;P1;durP2;ratioP2;P2;SDS_P1;SDS_P2;PMS_P1;PMS_P2;Temp;Humidity;BMP_temperature;BMP_pressure;BME280_temperature;BME280_humidity;BME280_pressure;Samples;Min_cycle;Max_cycle;Signal;HPM_P1;HPM_P2
2023/08/22 00:01:12;;;;;;;2.70;0.80;;;;;;;13.71;82.11;100101.77;109867;1280;22255;-62
2023/08/22 00:03:47;;;;;;;5.10;1.10;;;;;;;13.75;82.20;100099.95;109908;1277;99684;-62
2023/08/22 00:06:17;;;;;;;1.60;0.90;;;;;;;13.75;81.90;100099.80;109939;1277;23180;-62
2023/08/22 00:08:46;;;;;;;4.40;1.10;;;;;;;13.72;82.16;100092.61;109985;1277;100011;-62
2023/08/22 00:11:14;;;;;;;1.00;0.60;;;;;;;13.70;82.12;100093.09;110046;1277;22155;-62
2023/08/22 00:13:43;;;;;;;1.70;0.70;;;;;;;13.65;82.10;100093.14;110027;1276;22283;-62
2023/08/22 00:16:12;;;;;;;2.00;0.80;;;;;;;13.62;82.41;100086.65;109958;1277;100208;-62
2023/08/22 00:18:41;;;;;;;1.00;0.60;;;;;;;13.60;82.66;100085.89;110067;1277;22330;-62
2023/08/22 00:21:09;;;;;;;2.30;0.70;;;;;;;13.60;83.13;100080.66;109940;1277;100032;-62
2023/08/22 00:23:38;;;;;;;10.80;1.20;;;;;;;13.61;83.55;100080.56;110049;1276;22929;-62
2023/08/22 00:26:07;;;;;;;2.50;0.60;;;;;;;13.63;83.56;100082.94;110034;1276;22130;-62
2023/08/22 00:28:36;;;;;;;1.30;0.60;;;;;;;13.62;83.63;100085.79;110041;1276;23097;-62
2023/08/22 00:31:05;;;;;;;2.20;0.60;;;;;;;13.62;83.89;100085.44;110048;1277;22290;-62
2023/08/22 00:33:33;;;;;;;1.50;0.50;;;;;;;13.60;84.18;100084.10;109916;1276;99661;-62
2023/08/22 00:36:02;;;;;;;3.80;1.50;;;;;;;13.63;84.20;100089.93;110043;1277;22154;-62
2023/08/22 00:38:31;;;;;;;2.10;0.80;;;;;;;13.63;84.24;100087.64;109915;1276;99805;-62
2023/08/22 00:40:59;;;;;;;4.20;1.30;;;;;;;13.62;84.42;100090.65;109855;1276;22512;-62
2023/08/22 00:43:29;;;;;;;4.20;1.20;;;;;;;13.65;84.91;100086.34;109986;1276;22317;-62
2023/08/22 00:45:57;;;;;;;3.80;0.90;;;;;;;13.77;85.45;100088.13;109811;1277;100285;-61
2023/08/22 00:48:29;;;;;;;2.50;1.00;;;;;;;13.92;85.64;100092.20;109849;1278;22294;-62
2023/08/22 00:50:59;;;;;;;2.50;0.90;;;;;;;14.08;85.91;100093.23;109819;1276;100079;-62
2023/08/22 00:53:28;;;;;;;2.70;1.10;;;;;;;14.22;85.87;100097.54;109997;1276;22262;-62
2023/08/22 00:55:58;;;;;;;2.90;1.60;;;;;;;14.33;86.04;100095.86;109898;1280;22373;-62
2023/08/22 00:58:27;;;;;;;4.60;1.40;;;;;;;14.45;86.22;100095.52;109746;1276;99469;-62
2023/08/22 01:00:56;;;;;;;2.50;0.80;;;;;;;14.60;86.39;100094.91;109917;1278;23082;-62
2023/08/22 01:03:25;;;;;;;3.00;1.50;;;;;;;14.71;86.30;100089.48;109797;1276;100191;-62
2023/08/22 01:06:24;;;;;;;4.00;1.10;;;;;;;14.78;86.30;100085.77;109964;1276;22314;-62
2023/08/22 01:08:59;;;;;;;2.40;0.90;;;;;;;14.88;86.55;100086.92;109929;1277;100526;-61
2023/08/22 01:11:36;;;;;;;2.30;1.20;;;;;;;14.96;86.52;100088.52;109984;1277;23363;-61
2023/08/22 01:14:10;;;;;;;2.60;1.30;;;;;;;15.05;86.50;100085.58;109990;1277;22301;-61
2023/08/22 01:16:40;;;;;;;3.20;0.90;;;;;;;15.09;86.50;100088.48;110004;1276;22306;-61
2023/08/22 01:19:12;;;;;;;2.60;1.10;;;;;;;15.15;86.60;100092.52;109991;1277;22305;-61
2023/08/22 01:21:51;;;;;;;2.80;1.40;;;;;;;15.20;86.53;100092.17;109912;1279;100754;-61
2023/08/22 01:24:20;;;;;;;4.10;1.40;;;;;;;15.23;86.75;100092.88;109983;1277;22349;-61
2023/08/22 01:26:49;;;;;;;2.60;0.80;;;;;;;15.31;86.81;100098.36;109917;1276;99820;-62
2023/08/22 01:29:35;;;;;;;2.90;1.10;;;;;;;15.38;86.89;100092.82;109998;1277;22288;-61
2023/08/22 01:32:16;;;;;;;3.10;1.20;;;;;;;15.48;86.72;100097.49;110000;1276;22398;-61
2023/08/22 01:34:46;;;;;;;7.10;1.30;;;;;;;15.57;86.96;100098.38;110010;1276;22898;-61
2023/08/22 01:37:16;;;;;;;4.80;1.50;;;;;;;15.65;86.95;100099.80;109956;1277;22110;-61
2023/08/22 01:39:46;;;;;;;5.50;1.30;;;;;;;15.71;86.99;100099.80;109908;1276;100304;-61
2023/08/22 01:42:15;;;;;;;4.00;1.50;;;;;;;15.76;86.77;100097.16;109985;1277;22375;-62
2023/08/22 01:44:44;;;;;;;6.00;1.90;;;;;;;15.83;86.89;100100.43;109939;1277;99938;-61
2023/08/22 01:47:13;;;;;;;5.40;1.30;;;;;;;15.90;86.81;100101.95;109982;1276;22284;-61
2023/08/22 01:49:42;;;;;;;7.00;1.30;;;;;;;15.94;86.79;100101.02;109953;1278;23138;-61
2023/08/22 01:52:11;;;;;;;4.60;1.60;;;;;;;15.97;86.70;100106.46;109746;1278;100313;-61
2023/08/22 01:54:40;;;;;;;2.70;1.20;;;;;;;15.98;86.81;100110.38;109871;1276;23191;-62
2023/08/22 01:57:09;;;;;;;3.30;1.40;;;;;;;15.99;86.97;100111.05;109882;1277;99960;-61
2023/08/22 01:59:37;;;;;;;3.10;1.40;;;;;;;16.02;87.00;100107.88;109990;1276;22356;-61
2023/08/22 02:02:07;;;;;;;6.50;2.00;;;;;;;16.04;86.91;100106.84;110010;1277;22172;-61
2023/08/22 02:04:36;;;;;;;3.60;1.60;;;;;;;16.07;87.01;100105.61;109773;1278;99503;-62
2023/08/22 02:07:05;;;;;;;4.10;1.60;;;;;;;16.10;87.07;100102.75;109995;1275;22368;-61
2023/08/22 02:09:33;;;;;;;6.60;1.80;;;;;;;16.11;87.05;100098.52;109897;1277;100201;-61
2023/08/22 02:12:02;;;;;;;5.60;2.10;;;;;;;16.13;87.00;100093.42;109967;1277;22271;-62
2023/08/22 02:14:31;;;;;;;10.20;2.10;;;;;;;16.13;87.10;100091.33;109943;1277;99809;-61
2023/08/22 02:17:00;;;;;;;4.70;2.30;;;;;;;16.15;87.20;100093.31;110024;1277;23199;-61
2023/08/22 02:19:28;;;;;;;3.50;2.30;;;;;;;16.16;87.10;100094.33;109991;1276;24825;-61
2023/08/22 02:22:00;;;;;;;3.60;1.60;;;;;;;16.17;87.30;100087.21;109918;1277;99739;-62
2023/08/22 02:24:31;;;;;;;3.60;1.80;;;;;;;16.20;87.22;100079.64;109938;1276;22275;-61
2023/08/22 02:27:00;;;;;;;1.50;1.40;;;;;;;16.21;87.37;100083.59;109838;1278;99863;-62
2023/08/22 02:29:29;;;;;;;3.10;2.00;;;;;;;16.22;87.30;100083.56;110005;1277;23298;-61
2023/08/22 02:31:58;;;;;;;5.30;1.90;;;;;;;16.20;87.24;100084.90;109839;1276;22294;-61
2023/08/22 02:34:26;;;;;;;4.80;1.80;;;;;;;16.21;87.33;100086.06;109936;1277;100350;-62
2023/08/22 02:36:55;;;;;;;3.50;1.80;;;;;;;16.21;87.24;100089.27;109992;1277;23102;-61
2023/08/22 02:39:24;;;;;;;2.50;1.60;;;;;;;16.18;87.25;100087.83;109862;1278;99790;-61
2023/08/22 02:41:53;;;;;;;3.00;1.50;;;;;;;16.17;87.43;100086.52;109964;1277;22352;-61
2023/08/22 02:44:21;;;;;;;3.00;1.50;;;;;;;16.18;87.64;100081.89;109909;1266;98842;-61
2023/08/22 02:46:50;;;;;;;2.80;2.00;;;;;;;16.16;87.56;100070.59;110007;1277;22947;-61
2023/08/22 02:49:18;;;;;;;1.60;1.00;;;;;;;16.17;87.84;100056.98;110014;1276;23001;-62
2023/08/22 02:51:47;;;;;;;3.00;1.80;;;;;;;16.18;87.71;100047.82;109863;1276;99898;-61
2023/08/22 02:54:16;;;;;;;3.10;1.40;;;;;;;16.17;87.83;100052.29;110009;1277;23323;-61
2023/08/22 02:56:45;;;;;;;2.60;1.40;;;;;;;16.18;87.99;100052.39;109891;1277;100055;-61
2023/08/22 02:59:14;;;;;;;2.50;1.70;;;;;;;16.18;87.65;100052.05;109904;1278;23199;-62
2023/08/22 03:01:43;;;;;;;2.70;2.10;;;;;;;16.15;87.78;100057.86;109900;1277;22157;-62
2023/08/22 03:04:15;;;;;;;1.60;1.40;;;;;;;16.14;87.91;100060.69;109901;1276;100310;-62
2023/08/22 03:06:44;;;;;;;1.50;1.20;;;;;;;16.16;87.96;100075.16;109954;1277;22419;-61
2023/08/22 03:09:14;;;;;;;1.90;1.20;;;;;;;16.09;87.59;100075.08;109725;1276;99858;-62
2023/08/22 03:11:44;;;;;;;1.80;1.10;;;;;;;16.07;87.95;100072.08;109942;1277;23454;-62
2023/08/22 03:14:13;;;;;;;1.60;1.00;;;;;;;16.07;87.93;100069.09;109856;1281;22241;-62
2023/08/22 03:16:42;;;;;;;2.10;1.60;;;;;;;16.06;88.00;100068.10;110021;1277;22173;-62
2023/08/22 03:19:11;;;;;;;1.80;1.20;;;;;;;16.06;88.16;100067.21;110044;1277;22152;-62
2023/08/22 03:21:39;;;;;;;1.60;1.50;;;;;;;16.06;88.06;100064.60;109939;1277;100171;-62
2023/08/22 03:24:08;;;;;;;2.60;1.40;;;;;;;16.04;88.06;100066.48;110051;1276;22154;-62
2023/08/22 03:26:37;;;;;;;2.80;1.40;;;;;;;16.02;88.15;100064.34;109976;1278;99793;-61
2023/08/22 03:29:05;;;;;;;2.40;1.40;;;;;;;16.00;88.33;100062.85;110036;1276;23326;-61
2023/08/22 03:31:34;;;;;;;4.40;1.50;;;;;;;16.03;88.33;100064.21;110054;1278;22182;-61
2023/08/22 03:34:03;;;;;;;3.00;1.30;;;;;;;16.03;88.25;100052.67;109948;1276;100145;-62
2023/08/22 03:36:31;;;;;;;1.50;1.40;;;;;;;16.02;88.34;100049.06;110030;1276;22138;-61
2023/08/22 03:39:00;;;;;;;2.30;1.60;;;;;;;16.00;88.23;100054.61;109965;1276;98925;-61
2023/08/22 03:41:29;;;;;;;1.70;1.50;;;;;;;15.98;88.73;100062.85;110057;1276;22230;-61
2023/08/22 03:43:57;;;;;;;3.00;1.80;;;;;;;16.01;88.91;100054.89;110036;1276;22316;-61
2023/08/22 03:46:26;;;;;;;2.90;1.50;;;;;;;16.04;89.06;100055.41;109936;1271;99919;-62
2023/08/22 03:49:06;;;;;;;10.70;2.50;;;;;;;16.06;88.63;100060.02;110000;1278;22309;-62
2023/08/22 03:51:34;;;;;;;5.80;1.90;;;;;;;16.07;88.92;100060.85;109972;1277;99825;-61
2023/08/22 03:54:03;;;;;;;3.60;1.90;;;;;;;16.07;88.92;100064.68;110018;1277;22279;-61
2023/08/22 03:56:32;;;;;;;10.40;2.60;;;;;;;16.13;89.19;100063.06;109960;1277;99790;-62
2023/08/22 03:59:00;;;;;;;4.50;2.30;;;;;;;16.19;89.18;100067.75;110035;1277;22218;-61
2023/08/22 04:01:29;;;;;;;1.70;1.30;;;;;;;16.24;89.11;100067.98;110031;1280;22225;-61
2023/08/22 04:03:58;;;;;;;2.70;1.30;;;;;;;16.22;89.16;100066.16;109879;1278;100109;-61
2023/08/22 04:06:27;;;;;;;2.00;1.50;;;;;;;16.21;89.10;100067.98;109830;1278;22438;-62
2023/08/22 04:08:56;;;;;;;3.30;1.50;;;;;;;16.17;89.07;100076.30;109907;1278;99881;-61
2023/08/22 04:11:24;;;;;;;1.50;1.40;;;;;;;16.17;89.07;100079.12;109984;1277;22383;-61
2023/08/22 04:13:53;;;;;;;2.10;1.20;;;;;;;16.19;89.18;100083.38;110016;1277;22961;-61
2023/08/22 04:16:22;;;;;;;2.00;1.40;;;;;;;16.20;88.97;100084.40;109958;1276;100091;-61
2023/08/22 04:18:50;;;;;;;1.90;1.70;;;;;;;16.17;88.94;100080.73;109972;1277;23084;-61
2023/08/22 04:21:20;;;;;;;1.50;1.10;;;;;;;16.18;89.07;100083.27;109902;1276;99532;-62
2023/08/22 04:23:48;;;;;;;3.20;1.60;;;;;;;16.22;89.15;100084.05;110007;1277;22180;-61
2023/08/22 04:26:17;;;;;;;3.60;2.20;;;;;;;16.26;89.25;100077.47;109917;1280;99734;-61
2023/08/22 04:28:46;;;;;;;1.40;0.80;;;;;;;16.31;89.18;100084.35;110041;1276;22155;-61
2023/08/22 04:31:15;;;;;;;2.20;1.70;;;;;;;16.36;89.35;100082.16;110011;1277;22290;-61
2023/08/22 04:33:44;;;;;;;2.80;2.10;;;;;;;16.41;89.32;100082.17;109960;1277;99927;-61
2023/08/22 04:36:12;;;;;;;2.10;1.40;;;;;;;16.44;89.19;100070.86;109984;1278;22965;-61
2023/08/22 04:38:41;;;;;;;2.20;1.30;;;;;;;16.49;89.23;100075.16;109953;1277;99804;-61
2023/08/22 04:41:09;;;;;;;3.60;1.80;;;;;;;16.52;89.29;100076.34;109937;1280;22346;-61
2023/08/22 04:43:38;;;;;;;2.00;1.30;;;;;;;16.56;89.21;100072.91;109973;1278;23114;-61
2023/08/22 04:46:07;;;;;;;1.90;1.50;;;;;;;16.62;89.19;100075.69;109760;1271;100211;-61
2023/08/22 04:48:36;;;;;;;3.80;1.30;;;;;;;16.64;89.20;100081.47;109986;1279;22956;-61
2023/08/22 04:51:05;;;;;;;1.00;0.90;;;;;;;16.70;88.87;100085.63;109869;1277;100053;-61
2023/08/22 04:53:34;;;;;;;2.40;1.30;;;;;;;16.75;88.85;100083.90;109940;1277;22302;-61
2023/08/22 04:56:03;;;;;;;1.70;1.30;;;;;;;16.86;88.98;100084.42;109980;1277;22894;-61
2023/08/22 04:58:32;;;;;;;1.20;1.00;;;;;;;16.97;88.99;100088.46;109926;1276;99627;-61
2023/08/22 05:01:01;;;;;;;8.90;0.90;;;;;;;17.09;89.12;100094.16;109992;1273;22997;-62
2023/08/22 05:03:29;;;;;;;2.70;1.70;;;;;;;17.19;89.00;100094.30;109767;1277;99680;-61
2023/08/22 05:05:58;;;;;;;3.50;1.30;;;;;;;17.29;88.75;100094.58;109983;1278;22237;-63
2023/08/22 05:08:27;;;;;;;1.20;1.10;;;;;;;17.35;88.68;100087.27;109903;1277;99946;-60
2023/08/22 05:10:55;;;;;;;2.40;1.30;;;;;;;17.43;88.59;100088.96;110022;1278;23031;-60
2023/08/22 05:13:24;;;;;;;1.20;0.90;;;;;;;17.49;88.54;100090.86;109971;1267;22843;-60
2023/08/22 05:15:52;;;;;;;2.70;1.30;;;;;;;17.59;88.68;100090.45;109926;1276;99721;-61
2023/08/22 05:18:21;;;;;;;1.70;1.10;;;;;;;17.72;88.71;100087.79;109980;1276;22359;-60
2023/08/22 05:20:53;;;;;;;2.60;1.00;;;;;;;17.87;88.73;100091.52;109887;1277;99883;-61
2023/08/22 05:23:22;;;;;;;1.70;0.90;;;;;;;18.02;88.47;100090.08;109972;1276;23165;-60
2023/08/22 05:25:50;;;;;;;7.00;2.00;;;;;;;18.26;88.51;100090.98;109875;1277;22399;-60
2023/08/22 05:28:19;;;;;;;2.40;0.80;;;;;;;18.40;88.15;100082.02;109849;1278;99720;-61
2023/08/22 05:30:48;;;;;;;1.70;0.80;;;;;;;18.44;87.66;100077.30;109940;1275;22336;-62
2023/08/22 05:33:17;;;;;;;2.20;0.80;;;;;;;18.39;87.49;100079.77;109909;1276;99685;-66
2023/08/22 05:35:46;;;;;;;1.90;1.00;;;;;;;18.33;87.15;100081.68;109947;1276;22263;-63
2023/08/22 05:38:15;;;;;;;0.80;0.70;;;;;;;18.27;87.32;100094.80;109936;1280;22312;-60
2023/08/22 05:40:48;;;;;;;1.20;1.00;;;;;;;18.38;87.74;100102.95;109794;1279;99876;-61
2023/08/22 05:43:18;;;;;;;1.70;0.90;;;;;;;18.59;87.61;100105.98;109843;1277;22136;-66
2023/08/22 05:45:46;;;;;;;1.50;1.10;;;;;;;18.90;87.98;100097.19;109782;1280;100195;-63
2023/08/22 05:48:17;;;;;;;1.20;0.70;;;;;;;19.12;87.24;100087.75;109963;1276;23068;-64
2023/08/22 05:50:48;;;;;;;2.00;0.90;;;;;;;19.31;87.38;100091.58;109810;1271;100938;-64
2023/08/22 05:53:17;;;;;;;2.40;1.10;;;;;;;19.56;87.15;100088.75;109970;1277;22300;-66
2023/08/22 05:55:46;;;;;;;1.50;0.90;;;;;;;19.64;86.78;100086.88;109955;1277;22178;-64
2023/08/22 05:58:14;;;;;;;2.20;1.10;;;;;;;19.73;86.37;100096.02;109893;1277;100096;-63
2023/08/22 06:00:43;;;;;;;1.20;0.90;;;;;;;19.69;86.05;100098.48;109924;1277;22140;-65
2023/08/22 06:03:12;;;;;;;1.40;1.00;;;;;;;19.65;85.97;100092.42;109811;1276;99875;-64
2023/08/22 06:05:40;;;;;;;1.30;0.70;;;;;;;19.74;85.89;100090.29;109680;1276;313398;-67
2023/08/22 06:08:09;;;;;;;2.50;1.20;;;;;;;19.84;85.87;100092.52;109948;1274;22334;-69
2023/08/22 06:10:38;;;;;;;1.50;1.00;;;;;;;20.16;86.22;100094.91;109884;1277;99460;-65
2023/08/22 06:13:07;;;;;;;2.20;0.90;;;;;;;20.43;85.58;100091.80;109976;1276;22204;-65
2023/08/22 06:15:35;;;;;;;1.10;0.90;;;;;;;20.72;85.44;100092.80;109808;1276;99598;-65
2023/08/22 06:18:05;;;;;;;2.70;1.10;;;;;;;20.98;84.99;100090.61;109944;1278;22227;-63
2023/08/22 06:20:38;;;;;;;1.80;0.90;;;;;;;21.19;84.48;100078.52;109914;1277;100309;-64
2023/08/22 06:23:07;;;;;;;1.30;0.70;;;;;;;21.48;84.17;100082.96;109957;1276;22254;-64
2023/08/22 06:25:36;;;;;;;2.10;0.90;;;;;;;21.58;83.48;100078.01;110026;1276;22306;-59
2023/08/22 06:28:05;;;;;;;1.20;0.70;;;;;;;21.67;83.23;100071.55;109923;1276;100071;-59
2023/08/22 06:30:34;;;;;;;1.90;0.70;;;;;;;21.81;82.97;100068.20;110010;1276;22817;-59
2023/08/22 06:33:02;;;;;;;2.00;0.90;;;;;;;22.11;82.97;100065.87;109936;1276;100263;-59
2023/08/22 06:35:31;;;;;;;1.90;1.00;;;;;;;22.52;82.65;100062.36;110023;1278;22313;-59
2023/08/22 06:37:59;;;;;;;1.50;1.00;;;;;;;22.76;81.84;100061.52;110008;1278;22298;-59
2023/08/22 06:40:28;;;;;;;1.00;0.70;;;;;;;22.95;81.46;100059.08;109933;1278;100542;-59
2023/08/22 06:42:56;;;;;;;2.30;0.70;;;;;;;23.07;81.18;100060.51;109996;1276;22301;-59
2023/08/22 06:45:25;;;;;;;2.70;0.90;;;;;;;23.33;80.66;100063.33;109931;1276;99686;-60
2023/08/22 06:47:53;;;;;;;2.10;1.20;;;;;;;23.39;80.14;100061.67;110001;1278;22272;-60
2023/08/22 06:50:22;;;;;;;1.10;0.70;;;;;;;23.49;80.04;100058.27;109905;1279;99975;-59
2023/08/22 06:52:50;;;;;;;2.80;0.90;;;;;;;23.55;79.48;100055.38;109968;1283;22456;-59
2023/08/22 06:55:19;;;;;;;3.10;0.80;;;;;;;23.64;79.03;100040.80;109996;1277;22354;-58
2023/08/22 06:57:48;;;;;;;1.00;0.50;;;;;;;23.62;78.34;100021.48;109883;1278;99998;-58
2023/08/22 07:00:18;;;;;;;0.90;0.50;;;;;;;23.31;77.26;99990.64;109990;1276;22946;-58
2023/08/22 07:02:47;;;;;;;0.30;0.30;;;;;;;22.83;76.93;99975.04;109955;1277;101306;-58
2023/08/22 07:05:16;;;;;;;0.60;0.50;;;;;;;22.43;76.64;99965.73;110011;1275;22316;-59
2023/08/22 07:07:45;;;;;;;6.40;1.50;;;;;;;22.24;76.52;99943.09;110010;1277;22734;-59
2023/08/22 07:10:13;;;;;;;1.80;0.70;;;;;;;21.96;75.88;99941.59;109935;1277;100182;-59
2023/08/22 07:12:45;;;;;;;0.90;0.60;;;;;;;21.62;75.52;99944.45;110013;1277;22282;-59
2023/08/22 07:15:14;;;;;;;0.90;0.50;;;;;;;21.34;75.17;99943.77;109926;1276;99595;-59
2023/08/22 07:17:43;;;;;;;1.90;0.70;;;;;;;21.12;74.92;99938.39;110021;1277;23023;-62
2023/08/22 07:20:14;;;;;;;1.40;0.40;;;;;;;20.89;74.77;99943.09;109979;1279;22452;-61
2023/08/22 07:22:42;;;;;;;1.90;0.80;;;;;;;20.87;74.98;99966.28;109881;1271;99620;-61
2023/08/22 07:25:11;;;;;;;2.70;0.80;;;;;;;21.07;75.29;100009.61;109972;1278;22330;-61
2023/08/22 07:27:40;;;;;;;3.40;1.10;;;;;;;21.39;75.32;100053.64;109957;1277;99724;-62
2023/08/22 07:30:09;;;;;;;11.80;2.50;;;;;;;21.73;75.23;100067.98;109976;1279;23011;-62
2023/08/22 07:32:38;;;;;;;2.80;1.00;;;;;;;21.85;74.31;100076.05;109934;1277;100473;-61
2023/08/22 07:35:08;;;;;;;4.10;0.80;;;;;;;21.88;74.36;100076.44;109978;1276;22151;-62
2023/08/22 07:37:37;;;;;;;0.90;0.50;;;;;;;22.23;74.66;100076.91;110014;1276;22425;-62
2023/08/22 07:40:07;;;;;;;1.00;0.50;;;;;;;22.56;74.29;100064.64;109932;1278;98926;-61
2023/08/22 07:42:35;;;;;;;0.70;0.20;;;;;;;22.81;73.94;100059.16;110018;1280;23709;-62
2023/08/22 07:45:04;;;;;;;0.50;0.40;;;;;;;22.98;73.60;100050.08;109959;1276;99938;-62
2023/08/22 07:47:33;;;;;;;1.70;0.70;;;;;;;23.37;73.92;100038.90;110002;1280;22140;-62
2023/08/22 07:50:49;;;;;;;0.90;0.40;;;;;;;24.46;74.37;100032.43;109779;1276;99974;-63
2023/08/22 07:53:21;;;;;;;0.40;0.20;;;;;;;25.26;73.22;100029.55;110013;1277;22308;-63
2023/08/22 07:55:50;;;;;;;0.90;0.40;;;;;;;25.75;72.81;100024.23;109869;1277;22283;-64
2023/08/22 07:58:19;;;;;;;0.30;0.20;;;;;;;26.39;72.41;100029.95;109907;1277;100164;-63
2023/08/22 08:00:48;;;;;;;0.70;0.30;;;;;;;26.68;70.85;100038.02;109993;1278;22284;-63
2023/08/22 08:03:17;;;;;;;0.60;0.20;;;;;;;26.55;70.07;100047.10;109915;1276;99742;-63
2023/08/22 08:05:46;;;;;;;5.40;0.50;;;;;;;26.40;69.77;100058.48;109919;1277;22153;-63
2023/08/22 08:08:17;;;;;;;4.50;0.70;;;;;;;26.29;69.56;100053.29;110022;1276;22270;-63
2023/08/22 08:10:47;;;;;;;0.80;0.30;;;;;;;26.30;69.38;100052.95;109843;1276;22308;-63
2023/08/22 08:13:15;;;;;;;0.60;0.30;;;;;;;26.41;69.36;100048.58;109990;1276;22516;-63
2023/08/22 08:15:44;;;;;;;16.80;1.80;;;;;;;26.96;69.63;100057.19;109902;1276;100201;-64
2023/08/22 08:18:14;;;;;;;0.70;0.30;;;;;;;28.01;69.06;100060.24;109997;1278;22582;-64
2023/08/22 08:20:44;;;;;;;2.20;0.40;;;;;;;28.43;67.84;100062.31;109810;1278;100045;-65
2023/08/22 08:23:13;;;;;;;1.10;0.50;;;;;;;28.82;66.72;100070.64;109986;1277;22339;-65
2023/08/22 08:25:44;;;;;;;1.00;0.20;;;;;;;28.71;65.89;100072.81;109974;1279;22287;-63
2023/08/22 08:28:14;;;;;;;0.80;0.30;;;;;;;28.80;65.69;100076.64;109793;1277;99919;-66
2023/08/22 08:30:43;;;;;;;0.50;0.30;;;;;;;28.57;64.42;100080.19;109988;1281;22142;-64
2023/08/22 08:33:12;;;;;;;32.50;4.60;;;;;;;28.04;63.70;100079.16;109892;1277;99706;-63
2023/08/22 08:35:57;;;;;;;9.00;1.40;;;;;;;27.75;63.28;100080.16;109996;1276;22971;-62
2023/08/22 08:38:25;;;;;;;1.80;0.30;;;;;;;27.30;63.03;100079.90;109883;1277;99815;-63
2023/08/22 08:41:00;;;;;;;2.20;0.30;;;;;;;26.88;62.29;100084.23;109969;1277;22287;-64
2023/08/22 08:43:32;;;;;;;2.10;0.30;;;;;;;26.40;61.52;100073.48;109974;1276;22106;-62
2023/08/22 08:46:03;;;;;;;0.90;0.40;;;;;;;26.07;61.71;100063.86;109871;1276;100649;-64
2023/08/22 08:48:33;;;;;;;18.10;3.80;;;;;;;25.67;61.23;100064.18;110029;1280;22222;-64
2023/08/22 08:51:04;;;;;;;3.90;0.60;;;;;;;25.48;61.00;100062.70;109871;1275;100187;-64
2023/08/22 08:53:33;;;;;;;1.10;0.20;;;;;;;25.38;60.68;100061.33;109988;1276;22007;-64
2023/08/22 08:56:04;;;;;;;2.50;0.40;;;;;;;25.29;60.79;100058.57;109987;1276;23272;-64
2023/08/22 08:58:33;;;;;;;1.00;0.40;;;;;;;25.11;60.29;100065.31;109933;1276;99813;-64
2023/08/22 09:01:01;;;;;;;1.50;0.30;;;;;;;24.85;59.76;100068.14;109873;1277;22294;-64
2023/08/22 09:03:34;;;;;;;3.10;0.70;;;;;;;25.01;60.44;100062.80;109878;1282;101396;-64
2023/08/22 09:06:02;;;;;;;5.60;0.30;;;;;;;25.43;60.40;100068.47;109986;1276;22171;-64
2023/08/22 09:08:31;;;;;;;2.90;0.70;;;;;;;25.65;59.83;100066.65;109880;1276;99782;-64
2023/08/22 09:11:00;;;;;;;3.10;0.40;;;;;;;25.63;59.28;100065.05;109993;1276;23054;-64
2023/08/22 09:13:30;;;;;;;1.00;0.30;;;;;;;25.67;59.50;100066.48;109906;1276;22308;-64
2023/08/22 09:16:18;;;;;;;3.10;0.50;;;;;;;26.77;60.99;100065.27;109934;1276;99856;-64
2023/08/22 09:18:47;;;;;;;3.30;0.40;;;;;;;27.84;58.71;100063.80;110006;1276;22375;-64
2023/08/22 09:21:19;;;;;;;0.30;0.10;;;;;;;27.88;58.05;100069.98;109922;1276;99755;-63
2023/08/22 09:23:49;;;;;;;1.40;0.40;;;;;;;27.62;57.76;100071.10;109997;1276;22028;-64
2023/08/22 09:26:22;;;;;;;2.10;0.30;;;;;;;27.93;58.41;100069.31;110010;1276;22982;-63
2023/08/22 09:28:52;;;;;;;0.40;0.20;;;;;;;30.16;59.82;100062.63;109789;1277;22366;-63
2023/08/22 09:31:23;;;;;;;0.50;0.30;;;;;;;33.67;59.16;100058.68;109857;1280;22614;-63
2023/08/22 09:33:52;;;;;;;1.40;0.30;;;;;;;36.71;57.69;100049.13;109934;1277;99720;-63
2023/08/22 09:36:21;;;;;;;0.70;0.40;;;;;;;38.86;56.20;100045.48;109996;1276;22173;-60
2023/08/22 09:38:54;;;;;;;1.40;0.30;;;;;;;41.02;54.47;100042.94;109899;1278;99885;-59
2023/08/22 09:41:27;;;;;;;0.80;0.30;;;;;;;42.26;53.01;100035.97;109967;1277;22124;-60
2023/08/22 09:44:07;;;;;;;1.00;0.30;;;;;;;44.05;51.88;100031.65;109968;1277;22305;-61
2023/08/22 09:46:47;;;;;;;1.30;0.30;;;;;;;45.81;49.05;100021.17;109726;1276;99883;-60
2023/08/22 09:49:17;;;;;;;1.50;0.50;;;;;;;47.08;46.52;100018.79;109913;1280;23460;-60
2023/08/22 09:51:48;;;;;;;0.60;0.40;;;;;;;47.88;43.91;100016.42;109634;1276;99875;-59
2023/08/22 09:54:17;;;;;;;1.10;0.50;;;;;;;47.67;40.42;100010.98;109762;1283;22285;-58
2023/08/22 09:56:51;;;;;;;0.80;0.70;;;;;;;47.43;38.65;100010.88;109787;1280;99899;-58
2023/08/22 09:59:20;;;;;;;19.80;2.60;;;;;;;48.00;37.14;99999.90;109804;1276;23043;-58
2023/08/22 10:01:49;;;;;;;2.00;0.90;;;;;;;47.42;34.36;99996.15;109941;1278;22383;-61
2023/08/22 10:04:19;;;;;;;2.60;0.60;;;;;;;46.55;33.44;99995.02;109942;1276;99514;-62
2023/08/22 10:06:49;;;;;;;0.80;0.60;;;;;;;45.42;30.59;99995.06;109952;1276;22315;-61
2023/08/22 10:09:22;;;;;;;;;;;;;;;45.29;30.31;99994.54;109903;1276;99476;-58
2023/08/22 10:11:56;;;;;;;1.60;0.60;;;;;;;45.30;29.54;99987.30;109981;1276;22427;-63
2023/08/22 10:14:39;;;;;;;;;;;;;;;44.88;28.57;99987.91;109890;1276;23166;-62
2023/08/22 10:17:15;;;;;;;1.70;0.50;;;;;;;43.73;27.78;99989.36;109924;1277;22095;-60
2023/08/22 10:19:44;;;;;;;2.30;1.30;;;;;;;44.10;27.97;99989.22;109975;1277;22279;-61
2023/08/22 10:22:14;;;;;;;0.60;0.60;;;;;;;44.32;27.04;99984.05;109876;1276;99487;-59
2023/08/22 10:24:48;;;;;;;2.90;0.90;;;;;;;45.60;27.29;99989.44;109965;1275;22388;-62
2023/08/22 10:27:17;;;;;;;1.10;0.70;;;;;;;46.85;26.68;99993.44;109875;1277;99988;-59
2023/08/22 10:30:07;;;;;;;1.60;1.00;;;;;;;47.80;26.26;99989.46;109982;1276;22127;-56
2023/08/22 10:32:35;;;;;;;1.70;1.30;;;;;;;48.31;24.72;99987.12;109850;1276;99551;-59
2023/08/22 10:35:21;;;;;;;3.30;1.60;;;;;;;49.06;24.45;99989.23;109993;1276;22344;-61
2023/08/22 10:37:52;;;;;;;3.00;2.10;;;;;;;48.87;23.67;99987.39;109945;1277;22110;-61
2023/08/22 10:40:25;;;;;;;5.00;3.00;;;;;;;49.01;23.31;99986.31;109931;1276;99490;-60
2023/08/22 10:43:05;;;;;;;4.30;3.40;;;;;;;50.04;22.57;99988.75;109898;1276;23068;-60
2023/08/22 10:45:56;;;;;;;3.40;3.20;;;;;;;50.58;21.76;99992.66;109925;1276;99561;-60
2023/08/22 10:48:25;;;;;;;4.10;3.80;;;;;;;51.52;21.36;99995.29;109978;1276;22269;-59
2023/08/22 10:51:06;;;;;;;5.90;5.60;;;;;;;52.56;20.74;99990.04;109781;1279;99601;-60
2023/08/22 10:53:45;;;;;;;6.50;6.20;;;;;;;53.34;19.50;99988.85;109986;1277;22936;-60
2023/08/22 10:56:25;;;;;;;10.40;9.30;;;;;;;53.92;19.10;99982.52;109860;1278;23051;-59
2023/08/22 10:59:03;;;;;;;16.80;9.30;;;;;;;53.88;17.90;99982.42;109844;1276;99753;-59
2023/08/22 11:01:36;;;;;;;9.50;8.40;;;;;;;52.23;16.90;99976.96;109900;1276;22835;-60
2023/08/22 11:04:08;;;;;;;7.00;6.60;;;;;;;51.28;17.09;99978.39;109773;1277;99675;-59
2023/08/22 11:06:37;;;;;;;8.00;7.30;;;;;;;51.74;17.06;99978.42;109994;1276;23067;-58
2023/08/22 11:09:06;;;;;;;7.10;6.70;;;;;;;52.82;16.94;99977.20;109941;1277;100129;-59
2023/08/22 11:11:36;;;;;;;6.70;6.40;;;;;;;52.65;16.46;99973.85;109940;1280;22020;-59
2023/08/22 11:14:05;;;;;;;7.90;7.50;;;;;;;52.50;16.38;99974.24;109596;1277;22377;-59
2023/08/22 11:16:34;;;;;;;8.40;7.90;;;;;;;53.05;16.34;99965.80;109867;1276;99899;-60
2023/08/22 11:19:02;;;;;;;7.30;6.50;;;;;;;52.53;15.98;99961.83;109874;1274;22218;-58
2023/08/22 11:21:34;;;;;;;7.60;7.00;;;;;;;51.86;15.77;99962.50;109923;1277;99553;-58
2023/08/22 11:24:02;;;;;;;6.00;5.60;;;;;;;51.19;15.48;99965.09;109992;1276;22827;-58
2023/08/22 11:26:31;;;;;;;6.20;5.70;;;;;;;50.29;15.16;99965.98;109982;1276;22146;-58
2023/08/22 11:29:04;;;;;;;6.10;5.60;;;;;;;50.15;15.53;99964.16;109975;1276;22176;-59
2023/08/22 11:31:37;;;;;;;6.10;5.70;;;;;;;50.35;15.38;99968.75;110018;1277;23008;-58